sensor_id;sensor_type;location;lat;lon;timestamp;temperature;humidity
4985;DHT22;2509;49.902;8.600;2022-12-13T00:00:51;-3.50;99.90
4985;DHT22;2509;49.902;8.600;2022-12-13T00:03:54;-3.50;99.90
4985;DHT22;2509;49.902;8.600;2022-12-13T00:06:56;-3.50;99.90
4985;DHT22;2509;49.902;8.600;2022-12-13T00:09:58;-3.60;99.90
4985;DHT22;2509;49.902;8.600;2022-12-13T00:13:01;-3.60;99.90
4985;DHT22;2509;49.902;8.600;2022-12-13T00:16:06;-3.70;99.90
4985;DHT22;2509;49.902;8.600;2022-12-13T00:19:09;-3.70;99.90
4985;DHT22;2509;49.902;8.600;2022-12-13T00:22:10;-3.70;99.90
4985;DHT22;2509;49.902;8.600;2022-12-13T00:25:12;-3.80;99.90
4985;DHT22;2509;49.902;8.600;2022-12-13T00:28:16;-3.80;99.90
4985;DHT22;2509;49.902;8.600;2022-12-13T00:31:19;-3.80;99.90
4985;DHT22;2509;49.902;8.600;2022-12-13T00:34:21;-3.70;99.90
4985;DHT22;2509;49.902;8.600;2022-12-13T00:37:23;-3.80;99.90
4985;DHT22;2509;49.902;8.600;2022-12-13T00:40:27;-3.80;99.90
4985;DHT22;2509;49.902;8.600;2022-12-13T00:43:30;-3.80;99.90
4985;DHT22;2509;49.902;8.600;2022-12-13T00:46:32;-3.80;99.90
4985;DHT22;2509;49.902;8.600;2022-12-13T00:49:34;-3.90;99.90
4985;DHT22;2509;49.902;8.600;2022-12-13T00:52:36;-3.90;99.90
4985;DHT22;2509;49.902;8.600;2022-12-13T00:55:39;-3.90;99.90
4985;DHT22;2509;49.902;8.600;2022-12-13T00:58:42;-3.90;99.90
4985;DHT22;2509;49.902;8.600;2022-12-13T01:01:44;-3.90;99.90
4985;DHT22;2509;49.902;8.600;2022-12-13T01:04:48;-4.00;99.90
4985;DHT22;2509;49.902;8.600;2022-12-13T01:07:50;-4.00;99.90
4985;DHT22;2509;49.902;8.600;2022-12-13T01:10:51;-4.00;99.90
4985;DHT22;2509;49.902;8.600;2022-12-13T01:13:54;-4.00;99.90
4985;DHT22;2509;49.902;8.600;2022-12-13T01:16:56;-4.00;99.90
4985;DHT22;2509;49.902;8.600;2022-12-13T01:19:58;-4.00;99.90
4985;DHT22;2509;49.902;8.600;2022-12-13T01:23:00;-4.00;99.90
4985;DHT22;2509;49.902;8.600;2022-12-13T01:26:02;-4.00;99.90
4985;DHT22;2509;49.902;8.600;2022-12-13T01:29:06;-4.10;99.90
4985;DHT22;2509;49.902;8.600;2022-12-13T01:32:10;-4.00;99.90
4985;DHT22;2509;49.902;8.600;2022-12-13T01:35:12;-4.00;99.90
4985;DHT22;2509;49.902;8.600;2022-12-13T01:38:14;-4.00;99.90
4985;DHT22;2509;49.902;8.600;2022-12-13T01:41:18;-4.00;99.90
4985;DHT22;2509;49.902;8.600;2022-12-13T01:44:55;-4.00;99.90
4985;DHT22;2509;49.902;8.600;2022-12-13T01:48:00;-4.00;99.90
4985;DHT22;2509;49.902;8.600;2022-12-13T01:51:05;-4.00;99.90
4985;DHT22;2509;49.902;8.600;2022-12-13T01:54:09;-4.00;99.90
4985;DHT22;2509;49.902;8.600;2022-12-13T01:57:12;-4.00;99.90
4985;DHT22;2509;49.902;8.600;2022-12-13T02:00:17;-4.00;99.90
4985;DHT22;2509;49.902;8.600;2022-12-13T02:03:21;-4.00;99.90
4985;DHT22;2509;49.902;8.600;2022-12-13T02:06:27;-4.10;99.90
4985;DHT22;2509;49.902;8.600;2022-12-13T02:09:31;-4.00;99.90
4985;DHT22;2509;49.902;8.600;2022-12-13T02:12:34;-4.10;99.90
4985;DHT22;2509;49.902;8.600;2022-12-13T02:15:43;-4.10;99.90
4985;DHT22;2509;49.902;8.600;2022-12-13T02:19:01;-4.10;99.90
4985;DHT22;2509;49.902;8.600;2022-12-13T02:22:21;-4.10;99.90
4985;DHT22;2509;49.902;8.600;2022-12-13T02:25:49;-4.10;99.90
4985;DHT22;2509;49.902;8.600;2022-12-13T02:29:07;-4.10;99.90
4985;DHT22;2509;49.902;8.600;2022-12-13T02:32:22;-4.10;99.90
4985;DHT22;2509;49.902;8.600;2022-12-13T02:35:30;-4.10;99.90
4985;DHT22;2509;49.902;8.600;2022-12-13T02:38:38;-4.10;99.90
4985;DHT22;2509;49.902;8.600;2022-12-13T02:41:47;-4.20;99.90
4985;DHT22;2509;49.902;8.600;2022-12-13T02:44:51;-4.30;99.90
4985;DHT22;2509;49.902;8.600;2022-12-13T02:47:57;-4.40;99.90
4985;DHT22;2509;49.902;8.600;2022-12-13T02:51:01;-4.40;99.90
4985;DHT22;2509;49.902;8.600;2022-12-13T02:54:04;-4.30;99.90
4985;DHT22;2509;49.902;8.600;2022-12-13T02:57:27;-4.40;99.90
4985;DHT22;2509;49.902;8.600;2022-12-13T03:00:36;-4.30;99.90
4985;DHT22;2509;49.902;8.600;2022-12-13T03:03:46;-4.30;99.90
4985;DHT22;2509;49.902;8.600;2022-12-13T03:07:00;-4.30;99.90
4985;DHT22;2509;49.902;8.600;2022-12-13T03:10:07;-4.30;99.90
4985;DHT22;2509;49.902;8.600;2022-12-13T03:13:15;-4.30;99.90
4985;DHT22;2509;49.902;8.600;2022-12-13T03:16:37;-4.40;99.90
4985;DHT22;2509;49.902;8.600;2022-12-13T03:19:42;-4.40;99.90
4985;DHT22;2509;49.902;8.600;2022-12-13T03:22:44;-4.40;99.90
4985;DHT22;2509;49.902;8.600;2022-12-13T03:25:46;-4.40;99.90
4985;DHT22;2509;49.902;8.600;2022-12-13T03:28:50;-4.40;99.90
4985;DHT22;2509;49.902;8.600;2022-12-13T03:31:52;-4.50;99.90
4985;DHT22;2509;49.902;8.600;2022-12-13T03:34:56;-4.50;99.90
4985;DHT22;2509;49.902;8.600;2022-12-13T03:37:58;-4.50;99.90
4985;DHT22;2509;49.902;8.600;2022-12-13T03:41:19;-4.50;99.90
4985;DHT22;2509;49.902;8.600;2022-12-13T03:44:22;-4.50;99.90
4985;DHT22;2509;49.902;8.600;2022-12-13T03:47:24;-4.50;99.90
4985;DHT22;2509;49.902;8.600;2022-12-13T03:50:27;-4.50;99.90
4985;DHT22;2509;49.902;8.600;2022-12-13T03:53:29;-4.50;99.90
4985;DHT22;2509;49.902;8.600;2022-12-13T03:56:31;-4.50;99.90
4985;DHT22;2509;49.902;8.600;2022-12-13T03:59:33;-4.60;99.90
4985;DHT22;2509;49.902;8.600;2022-12-13T04:02:34;-4.60;99.90
4985;DHT22;2509;49.902;8.600;2022-12-13T04:05:38;-4.70;99.90
4985;DHT22;2509;49.902;8.600;2022-12-13T04:08:39;-4.70;99.90
4985;DHT22;2509;49.902;8.600;2022-12-13T04:11:41;-4.70;99.90
4985;DHT22;2509;49.902;8.600;2022-12-13T04:15:00;-4.70;99.90
4985;DHT22;2509;49.902;8.600;2022-12-13T04:18:02;-4.70;99.90
4985;DHT22;2509;49.902;8.600;2022-12-13T04:21:05;-4.70;99.90
4985;DHT22;2509;49.902;8.600;2022-12-13T04:24:07;-4.70;99.90
4985;DHT22;2509;49.902;8.600;2022-12-13T04:27:09;-4.70;99.90
4985;DHT22;2509;49.902;8.600;2022-12-13T04:30:11;-4.60;99.90
4985;DHT22;2509;49.902;8.600;2022-12-13T04:33:16;-4.60;99.90
4985;DHT22;2509;49.902;8.600;2022-12-13T04:36:21;-4.70;99.90
4985;DHT22;2509;49.902;8.600;2022-12-13T04:39:23;-4.60;99.90
4985;DHT22;2509;49.902;8.600;2022-12-13T04:42:25;-4.70;99.90
4985;DHT22;2509;49.902;8.600;2022-12-13T04:45:27;-4.70;99.90
4985;DHT22;2509;49.902;8.600;2022-12-13T04:48:28;-4.70;99.90
4985;DHT22;2509;49.902;8.600;2022-12-13T04:51:33;-4.70;99.90
4985;DHT22;2509;49.902;8.600;2022-12-13T04:54:35;-4.70;99.90
4985;DHT22;2509;49.902;8.600;2022-12-13T04:57:37;-4.70;99.90
4985;DHT22;2509;49.902;8.600;2022-12-13T05:00:39;-4.70;99.90
4985;DHT22;2509;49.902;8.600;2022-12-13T05:03:40;-4.60;99.90
4985;DHT22;2509;49.902;8.600;2022-12-13T05:06:44;-4.70;99.90
4985;DHT22;2509;49.902;8.600;2022-12-13T05:09:46;-4.70;99.90
4985;DHT22;2509;49.902;8.600;2022-12-13T05:12:47;-4.60;99.90
4985;DHT22;2509;49.902;8.600;2022-12-13T05:15:53;-4.60;99.90
4985;DHT22;2509;49.902;8.600;2022-12-13T05:18:55;-4.60;99.90
4985;DHT22;2509;49.902;8.600;2022-12-13T05:21:59;-4.70;99.90
4985;DHT22;2509;49.902;8.600;2022-12-13T05:25:00;-4.70;99.90
4985;DHT22;2509;49.902;8.600;2022-12-13T05:28:02;-4.70;99.90
4985;DHT22;2509;49.902;8.600;2022-12-13T05:31:06;-4.70;99.90
4985;DHT22;2509;49.902;8.600;2022-12-13T05:34:08;-4.80;99.90
4985;DHT22;2509;49.902;8.600;2022-12-13T05:37:11;-4.90;99.90
4985;DHT22;2509;49.902;8.600;2022-12-13T05:40:13;-4.80;99.90
4985;DHT22;2509;49.902;8.600;2022-12-13T05:43:14;-4.80;99.90
4985;DHT22;2509;49.902;8.600;2022-12-13T05:46:16;-4.90;99.90
4985;DHT22;2509;49.902;8.600;2022-12-13T05:49:18;-4.90;99.90
4985;DHT22;2509;49.902;8.600;2022-12-13T05:52:21;-5.00;99.90
4985;DHT22;2509;49.902;8.600;2022-12-13T05:55:23;-5.10;99.90
4985;DHT22;2509;49.902;8.600;2022-12-13T05:58:25;-5.10;99.90
4985;DHT22;2509;49.902;8.600;2022-12-13T06:01:27;-5.10;99.90
4985;DHT22;2509;49.902;8.600;2022-12-13T06:04:29;-5.00;99.90
4985;DHT22;2509;49.902;8.600;2022-12-13T06:07:32;-5.10;99.90
4985;DHT22;2509;49.902;8.600;2022-12-13T06:10:34;-5.00;99.90
4985;DHT22;2509;49.902;8.600;2022-12-13T06:13:36;-5.00;99.90
4985;DHT22;2509;49.902;8.600;2022-12-13T06:16:38;-5.00;99.90
4985;DHT22;2509;49.902;8.600;2022-12-13T06:19:39;-5.10;99.90
4985;DHT22;2509;49.902;8.600;2022-12-13T06:22:42;-5.10;99.90
4985;DHT22;2509;49.902;8.600;2022-12-13T06:25:44;-5.10;99.90
4985;DHT22;2509;49.902;8.600;2022-12-13T06:28:46;-5.10;99.90
4985;DHT22;2509;49.902;8.600;2022-12-13T06:31:51;-5.20;99.90
4985;DHT22;2509;49.902;8.600;2022-12-13T06:34:53;-5.10;99.90
4985;DHT22;2509;49.902;8.600;2022-12-13T06:37:56;-5.10;99.90
4985;DHT22;2509;49.902;8.600;2022-12-13T06:41:08;-5.10;99.90
4985;DHT22;2509;49.902;8.600;2022-12-13T06:44:10;-5.00;99.90
4985;DHT22;2509;49.902;8.600;2022-12-13T06:47:12;-5.10;99.90
4985;DHT22;2509;49.902;8.600;2022-12-13T06:50:14;-5.10;99.90
4985;DHT22;2509;49.902;8.600;2022-12-13T06:53:17;-5.20;99.90
4985;DHT22;2509;49.902;8.600;2022-12-13T06:56:19;-5.30;99.90
4985;DHT22;2509;49.902;8.600;2022-12-13T06:59:21;-5.30;99.90
4985;DHT22;2509;49.902;8.600;2022-12-13T07:02:23;-5.30;99.90
4985;DHT22;2509;49.902;8.600;2022-12-13T07:05:24;-5.30;99.90
4985;DHT22;2509;49.902;8.600;2022-12-13T07:08:28;-5.30;99.90
4985;DHT22;2509;49.902;8.600;2022-12-13T07:11:32;-5.30;99.90
4985;DHT22;2509;49.902;8.600;2022-12-13T07:14:33;-5.30;99.90
4985;DHT22;2509;49.902;8.600;2022-12-13T07:17:35;-5.30;99.90
4985;DHT22;2509;49.902;8.600;2022-12-13T07:20:38;-5.30;99.90
4985;DHT22;2509;49.902;8.600;2022-12-13T07:23:41;-5.20;99.90
4985;DHT22;2509;49.902;8.600;2022-12-13T07:26:43;-5.20;99.90
4985;DHT22;2509;49.902;8.600;2022-12-13T07:29:44;-5.10;99.90
4985;DHT22;2509;49.902;8.600;2022-12-13T07:32:46;-5.20;99.90
4985;DHT22;2509;49.902;8.600;2022-12-13T07:35:48;-5.30;99.90
4985;DHT22;2509;49.902;8.600;2022-12-13T07:38:52;-5.30;99.90
4985;DHT22;2509;49.902;8.600;2022-12-13T07:41:54;-5.30;99.90
4985;DHT22;2509;49.902;8.600;2022-12-13T07:44:56;-5.40;99.90
4985;DHT22;2509;49.902;8.600;2022-12-13T07:48:03;-5.30;99.90
4985;DHT22;2509;49.902;8.600;2022-12-13T07:51:06;-5.30;99.90
4985;DHT22;2509;49.902;8.600;2022-12-13T07:54:09;-5.20;99.90
4985;DHT22;2509;49.902;8.600;2022-12-13T07:57:11;-5.30;99.90
4985;DHT22;2509;49.902;8.600;2022-12-13T08:00:14;-5.20;99.90
4985;DHT22;2509;49.902;8.600;2022-12-13T08:03:15;-5.30;99.90
4985;DHT22;2509;49.902;8.600;2022-12-13T08:06:17;-5.20;99.90
4985;DHT22;2509;49.902;8.600;2022-12-13T08:09:20;-5.20;99.90
4985;DHT22;2509;49.902;8.600;2022-12-13T08:12:22;-5.10;99.90
4985;DHT22;2509;49.902;8.600;2022-12-13T08:15:24;-5.10;99.90
4985;DHT22;2509;49.902;8.600;2022-12-13T08:18:26;-5.00;99.90
4985;DHT22;2509;49.902;8.600;2022-12-13T08:21:28;-4.90;99.90
4985;DHT22;2509;49.902;8.600;2022-12-13T08:24:31;-4.90;99.90
4985;DHT22;2509;49.902;8.600;2022-12-13T08:27:33;-4.80;99.90
4985;DHT22;2509;49.902;8.600;2022-12-13T08:30:34;-4.80;99.90
4985;DHT22;2509;49.902;8.600;2022-12-13T08:33:36;-4.70;99.90
4985;DHT22;2509;49.902;8.600;2022-12-13T08:36:39;-4.60;99.90
4985;DHT22;2509;49.902;8.600;2022-12-13T08:39:42;-4.60;99.90
4985;DHT22;2509;49.902;8.600;2022-12-13T08:42:45;-4.60;99.90
4985;DHT22;2509;49.902;8.600;2022-12-13T08:45:49;-4.60;99.90
4985;DHT22;2509;49.902;8.600;2022-12-13T08:48:52;-4.60;99.90
4985;DHT22;2509;49.902;8.600;2022-12-13T08:51:53;-4.50;99.90
4985;DHT22;2509;49.902;8.600;2022-12-13T08:54:57;-4.30;99.90
4985;DHT22;2509;49.902;8.600;2022-12-13T08:58:03;-4.20;99.90
4985;DHT22;2509;49.902;8.600;2022-12-13T09:01:06;-4.10;99.90
4985;DHT22;2509;49.902;8.600;2022-12-13T09:04:08;-4.00;99.90
4985;DHT22;2509;49.902;8.600;2022-12-13T09:07:10;-3.80;99.90
4985;DHT22;2509;49.902;8.600;2022-12-13T09:10:13;-3.60;99.90
4985;DHT22;2509;49.902;8.600;2022-12-13T09:13:15;-3.40;99.90
4985;DHT22;2509;49.902;8.600;2022-12-13T09:16:19;-3.40;99.90
4985;DHT22;2509;49.902;8.600;2022-12-13T09:19:23;-3.20;99.90
4985;DHT22;2509;49.902;8.600;2022-12-13T09:22:25;-3.00;99.90
4985;DHT22;2509;49.902;8.600;2022-12-13T09:25:29;-2.90;99.90
4985;DHT22;2509;49.902;8.600;2022-12-13T09:28:33;-2.80;99.90
4985;DHT22;2509;49.902;8.600;2022-12-13T09:31:36;-2.70;99.90
4985;DHT22;2509;49.902;8.600;2022-12-13T09:34:39;-2.50;99.90
4985;DHT22;2509;49.902;8.600;2022-12-13T09:37:41;-2.30;99.90
4985;DHT22;2509;49.902;8.600;2022-12-13T09:40:47;-2.20;99.90
4985;DHT22;2509;49.902;8.600;2022-12-13T09:43:54;-2.10;99.90
4985;DHT22;2509;49.902;8.600;2022-12-13T09:47:00;-2.00;99.90
4985;DHT22;2509;49.902;8.600;2022-12-13T09:50:06;-1.80;99.90
4985;DHT22;2509;49.902;8.600;2022-12-13T09:53:13;-1.70;99.90
4985;DHT22;2509;49.902;8.600;2022-12-13T09:56:17;-1.60;99.90
4985;DHT22;2509;49.902;8.600;2022-12-13T09:59:24;-1.60;99.90
4985;DHT22;2509;49.902;8.600;2022-12-13T10:02:28;-1.60;99.90
4985;DHT22;2509;49.902;8.600;2022-12-13T10:05:31;-1.50;99.90
4985;DHT22;2509;49.902;8.600;2022-12-13T10:08:36;-1.50;99.90
4985;DHT22;2509;49.902;8.600;2022-12-13T10:11:47;-1.40;99.90
4985;DHT22;2509;49.902;8.600;2022-12-13T10:14:53;-1.30;99.90
4985;DHT22;2509;49.902;8.600;2022-12-13T10:17:55;-1.30;99.90
4985;DHT22;2509;49.902;8.600;2022-12-13T10:20:58;-1.30;99.90
4985;DHT22;2509;49.902;8.600;2022-12-13T10:24:10;-1.30;99.90
4985;DHT22;2509;49.902;8.600;2022-12-13T10:27:16;-1.20;99.90
4985;DHT22;2509;49.902;8.600;2022-12-13T10:30:20;-1.20;99.90
4985;DHT22;2509;49.902;8.600;2022-12-13T10:33:27;-1.00;99.90
4985;DHT22;2509;49.902;8.600;2022-12-13T10:36:32;-1.00;99.90
4985;DHT22;2509;49.902;8.600;2022-12-13T10:39:39;-0.90;99.90
4985;DHT22;2509;49.902;8.600;2022-12-13T10:42:42;-1.00;99.90
4985;DHT22;2509;49.902;8.600;2022-12-13T10:45:57;-0.90;99.90
4985;DHT22;2509;49.902;8.600;2022-12-13T10:48:59;-0.80;99.90
4985;DHT22;2509;49.902;8.600;2022-12-13T10:52:01;-0.80;99.90
4985;DHT22;2509;49.902;8.600;2022-12-13T10:55:05;-0.70;99.90
4985;DHT22;2509;49.902;8.600;2022-12-13T10:58:18;-0.70;99.90
4985;DHT22;2509;49.902;8.600;2022-12-13T11:01:21;-0.70;99.90
4985;DHT22;2509;49.902;8.600;2022-12-13T11:04:27;-0.60;99.90
4985;DHT22;2509;49.902;8.600;2022-12-13T11:07:31;-0.60;99.90
4985;DHT22;2509;49.902;8.600;2022-12-13T11:10:33;-0.50;99.90
4985;DHT22;2509;49.902;8.600;2022-12-13T11:13:40;-0.40;99.90
4985;DHT22;2509;49.902;8.600;2022-12-13T11:16:48;-0.20;99.90
4985;DHT22;2509;49.902;8.600;2022-12-13T11:19:54;0.00;99.90
4985;DHT22;2509;49.902;8.600;2022-12-13T11:23:02;0.30;99.90
4985;DHT22;2509;49.902;8.600;2022-12-13T11:26:07;0.60;99.90
4985;DHT22;2509;49.902;8.600;2022-12-13T11:29:28;0.80;99.90
4985;DHT22;2509;49.902;8.600;2022-12-13T11:32:43;1.10;99.90
4985;DHT22;2509;49.902;8.600;2022-12-13T11:35:59;1.50;99.90
4985;DHT22;2509;49.902;8.600;2022-12-13T11:39:17;2.10;99.90
4985;DHT22;2509;49.902;8.600;2022-12-13T11:42:25;2.10;99.90
4985;DHT22;2509;49.902;8.600;2022-12-13T11:45:32;2.20;99.90
4985;DHT22;2509;49.902;8.600;2022-12-13T11:48:40;2.10;99.90
4985;DHT22;2509;49.902;8.600;2022-12-13T11:51:47;2.10;99.90
4985;DHT22;2509;49.902;8.600;2022-12-13T11:54:55;2.00;99.90
4985;DHT22;2509;49.902;8.600;2022-12-13T11:58:05;2.20;99.90
4985;DHT22;2509;49.902;8.600;2022-12-13T12:01:11;2.20;99.90
4985;DHT22;2509;49.902;8.600;2022-12-13T12:04:18;2.00;99.90
4985;DHT22;2509;49.902;8.600;2022-12-13T12:07:26;1.90;99.90
4985;DHT22;2509;49.902;8.600;2022-12-13T12:10:33;1.90;99.90
4985;DHT22;2509;49.902;8.600;2022-12-13T12:13:39;1.90;99.90
4985;DHT22;2509;49.902;8.600;2022-12-13T12:16:48;1.90;99.90
4985;DHT22;2509;49.902;8.600;2022-12-13T12:19:53;1.80;99.90
4985;DHT22;2509;49.902;8.600;2022-12-13T12:23:01;2.00;99.90
4985;DHT22;2509;49.902;8.600;2022-12-13T12:26:07;2.10;99.90
4985;DHT22;2509;49.902;8.600;2022-12-13T12:29:40;2.40;99.90
4985;DHT22;2509;49.902;8.600;2022-12-13T12:32:52;2.60;99.90
4985;DHT22;2509;49.902;8.600;2022-12-13T12:36:02;2.70;99.90
4985;DHT22;2509;49.902;8.600;2022-12-13T12:42:47;2.70;99.90
4985;DHT22;2509;49.902;8.600;2022-12-13T12:46:00;2.70;99.90
4985;DHT22;2509;49.902;8.600;2022-12-13T12:49:21;2.80;99.90
4985;DHT22;2509;49.902;8.600;2022-12-13T12:52:28;2.80;99.90
4985;DHT22;2509;49.902;8.600;2022-12-13T12:55:45;2.90;99.90
4985;DHT22;2509;49.902;8.600;2022-12-13T12:58:55;3.10;99.90
4985;DHT22;2509;49.902;8.600;2022-12-13T13:02:02;3.10;99.90
4985;DHT22;2509;49.902;8.600;2022-12-13T13:05:14;3.00;99.90
4985;DHT22;2509;49.902;8.600;2022-12-13T13:08:23;2.90;99.90
4985;DHT22;2509;49.902;8.600;2022-12-13T13:11:28;2.70;99.90
4985;DHT22;2509;49.902;8.600;2022-12-13T13:14:33;2.50;99.90
4985;DHT22;2509;49.902;8.600;2022-12-13T13:17:45;2.50;99.90
4985;DHT22;2509;49.902;8.600;2022-12-13T13:24:41;2.30;99.90
4985;DHT22;2509;49.902;8.600;2022-12-13T13:27:44;2.30;99.90
4985;DHT22;2509;49.902;8.600;2022-12-13T13:31:01;2.00;99.90
4985;DHT22;2509;49.902;8.600;2022-12-13T13:34:21;1.80;99.90
4985;DHT22;2509;49.902;8.600;2022-12-13T13:37:44;1.80;99.90
4985;DHT22;2509;49.902;8.600;2022-12-13T13:40:46;1.80;99.90
4985;DHT22;2509;49.902;8.600;2022-12-13T13:43:48;1.80;99.90
4985;DHT22;2509;49.902;8.600;2022-12-13T13:47:11;2.00;99.90
4985;DHT22;2509;49.902;8.600;2022-12-13T13:57:59;1.70;99.90
4985;DHT22;2509;49.902;8.600;2022-12-13T14:05:08;1.40;99.90
4985;DHT22;2509;49.902;8.600;2022-12-13T14:08:27;1.10;99.90
4985;DHT22;2509;49.902;8.600;2022-12-13T14:15:56;0.90;99.90
4985;DHT22;2509;49.902;8.600;2022-12-13T14:22:44;0.70;99.90
4985;DHT22;2509;49.902;8.600;2022-12-13T14:26:07;0.70;99.90
4985;DHT22;2509;49.902;8.600;2022-12-13T14:29:13;0.60;99.90
4985;DHT22;2509;49.902;8.600;2022-12-13T14:32:22;0.50;99.90
4985;DHT22;2509;49.902;8.600;2022-12-13T14:35:28;0.40;99.90
4985;DHT22;2509;49.902;8.600;2022-12-13T14:38:31;0.40;99.90
4985;DHT22;2509;49.902;8.600;2022-12-13T14:41:32;0.20;99.90
4985;DHT22;2509;49.902;8.600;2022-12-13T14:44:45;0.10;99.90
4985;DHT22;2509;49.902;8.600;2022-12-13T14:47:48;0.00;99.90
4985;DHT22;2509;49.902;8.600;2022-12-13T14:50:51;-0.10;99.90
4985;DHT22;2509;49.902;8.600;2022-12-13T14:53:54;-0.20;99.90
4985;DHT22;2509;49.902;8.600;2022-12-13T14:56:57;-0.30;99.90
4985;DHT22;2509;49.902;8.600;2022-12-13T15:00:18;-0.30;99.90
4985;DHT22;2509;49.902;8.600;2022-12-13T15:03:23;-0.50;99.90
4985;DHT22;2509;49.902;8.600;2022-12-13T15:06:25;-0.50;99.90
4985;DHT22;2509;49.902;8.600;2022-12-13T15:09:28;-0.60;99.90
4985;DHT22;2509;49.902;8.600;2022-12-13T15:12:30;-0.70;99.90
4985;DHT22;2509;49.902;8.600;2022-12-13T15:15:35;-0.70;99.90
4985;DHT22;2509;49.902;8.600;2022-12-13T15:18:38;-0.80;99.90
4985;DHT22;2509;49.902;8.600;2022-12-13T15:21:41;-0.80;99.90
4985;DHT22;2509;49.902;8.600;2022-12-13T15:24:55;-0.80;99.90
4985;DHT22;2509;49.902;8.600;2022-12-13T15:27:57;-0.90;99.90
4985;DHT22;2509;49.902;8.600;2022-12-13T15:30:59;-0.90;99.90
4985;DHT22;2509;49.902;8.600;2022-12-13T15:37:32;-1.00;99.90
4985;DHT22;2509;49.902;8.600;2022-12-13T15:40:34;-1.00;99.90
4985;DHT22;2509;49.902;8.600;2022-12-13T15:43:40;-1.10;99.90
4985;DHT22;2509;49.902;8.600;2022-12-13T15:46:44;-1.10;99.90
4985;DHT22;2509;49.902;8.600;2022-12-13T15:49:49;-1.20;99.90
4985;DHT22;2509;49.902;8.600;2022-12-13T15:52:58;-1.30;99.90
4985;DHT22;2509;49.902;8.600;2022-12-13T15:56:01;-1.30;99.90
4985;DHT22;2509;49.902;8.600;2022-12-13T15:59:03;-1.40;99.90
4985;DHT22;2509;49.902;8.600;2022-12-13T16:02:14;-1.40;99.90
4985;DHT22;2509;49.902;8.600;2022-12-13T16:05:23;-1.40;99.90
4985;DHT22;2509;49.902;8.600;2022-12-13T16:08:30;-1.40;99.90
4985;DHT22;2509;49.902;8.600;2022-12-13T16:11:34;-1.40;99.90
4985;DHT22;2509;49.902;8.600;2022-12-13T16:14:40;-1.50;99.90
4985;DHT22;2509;49.902;8.600;2022-12-13T16:17:42;-1.50;99.90
4985;DHT22;2509;49.902;8.600;2022-12-13T16:20:44;-1.50;99.90
4985;DHT22;2509;49.902;8.600;2022-12-13T16:23:48;-1.50;99.90
4985;DHT22;2509;49.902;8.600;2022-12-13T16:26:49;-1.50;99.90
4985;DHT22;2509;49.902;8.600;2022-12-13T16:29:51;-1.50;99.90
4985;DHT22;2509;49.902;8.600;2022-12-13T16:32:53;-1.50;99.90
4985;DHT22;2509;49.902;8.600;2022-12-13T16:35:55;-1.50;99.90
4985;DHT22;2509;49.902;8.600;2022-12-13T16:38:58;-1.50;99.90
4985;DHT22;2509;49.902;8.600;2022-12-13T16:42:00;-1.60;99.90
4985;DHT22;2509;49.902;8.600;2022-12-13T16:45:02;-1.60;99.90
4985;DHT22;2509;49.902;8.600;2022-12-13T16:48:05;-1.60;99.90
4985;DHT22;2509;49.902;8.600;2022-12-13T16:51:07;-1.70;99.90
4985;DHT22;2509;49.902;8.600;2022-12-13T16:54:10;-1.70;99.90
4985;DHT22;2509;49.902;8.600;2022-12-13T16:57:12;-1.70;99.90
4985;DHT22;2509;49.902;8.600;2022-12-13T17:00:14;-1.80;99.90
4985;DHT22;2509;49.902;8.600;2022-12-13T17:03:16;-1.80;99.90
4985;DHT22;2509;49.902;8.600;2022-12-13T17:06:21;-1.80;99.90
4985;DHT22;2509;49.902;8.600;2022-12-13T17:09:24;-1.80;99.90
4985;DHT22;2509;49.902;8.600;2022-12-13T17:12:26;-1.80;99.90
4985;DHT22;2509;49.902;8.600;2022-12-13T17:15:28;-1.90;99.90
4985;DHT22;2509;49.902;8.600;2022-12-13T17:18:30;-1.90;99.90
4985;DHT22;2509;49.902;8.600;2022-12-13T17:21:32;-2.00;99.90
4985;DHT22;2509;49.902;8.600;2022-12-13T17:24:35;-2.00;99.90
4985;DHT22;2509;49.902;8.600;2022-12-13T17:27:38;-2.00;99.90
4985;DHT22;2509;49.902;8.600;2022-12-13T17:30:40;-2.10;99.90
4985;DHT22;2509;49.902;8.600;2022-12-13T17:33:42;-2.10;99.90
4985;DHT22;2509;49.902;8.600;2022-12-13T17:36:44;-2.10;99.90
4985;DHT22;2509;49.902;8.600;2022-12-13T17:39:47;-2.00;99.90
4985;DHT22;2509;49.902;8.600;2022-12-13T17:42:50;-2.10;99.90
4985;DHT22;2509;49.902;8.600;2022-12-13T17:45:55;-2.10;99.90
4985;DHT22;2509;49.902;8.600;2022-12-13T17:49:01;-2.10;99.90
4985;DHT22;2509;49.902;8.600;2022-12-13T17:52:03;-2.10;99.90
4985;DHT22;2509;49.902;8.600;2022-12-13T17:55:07;-2.10;99.90
4985;DHT22;2509;49.902;8.600;2022-12-13T17:58:09;-2.20;99.90
4985;DHT22;2509;49.902;8.600;2022-12-13T18:01:11;-2.20;99.90
4985;DHT22;2509;49.902;8.600;2022-12-13T18:04:13;-2.30;99.90
4985;DHT22;2509;49.902;8.600;2022-12-13T18:07:15;-2.30;99.90
4985;DHT22;2509;49.902;8.600;2022-12-13T18:10:18;-2.20;99.90
4985;DHT22;2509;49.902;8.600;2022-12-13T18:13:20;-2.20;99.90
4985;DHT22;2509;49.902;8.600;2022-12-13T18:16:23;-2.20;99.90
4985;DHT22;2509;49.902;8.600;2022-12-13T18:19:26;-2.30;99.90
4985;DHT22;2509;49.902;8.600;2022-12-13T18:22:31;-2.30;99.90
4985;DHT22;2509;49.902;8.600;2022-12-13T18:25:34;-2.30;99.90
4985;DHT22;2509;49.902;8.600;2022-12-13T18:28:36;-2.30;99.90
4985;DHT22;2509;49.902;8.600;2022-12-13T18:31:38;-2.30;99.90
4985;DHT22;2509;49.902;8.600;2022-12-13T18:34:40;-2.30;99.90
4985;DHT22;2509;49.902;8.600;2022-12-13T18:37:42;-2.30;99.90
4985;DHT22;2509;49.902;8.600;2022-12-13T18:40:45;-2.20;99.90
4985;DHT22;2509;49.902;8.600;2022-12-13T18:43:52;-2.30;99.90
4985;DHT22;2509;49.902;8.600;2022-12-13T18:46:54;-2.30;99.90
4985;DHT22;2509;49.902;8.600;2022-12-13T18:49:56;-2.20;99.90
4985;DHT22;2509;49.902;8.600;2022-12-13T18:52:58;-2.30;99.90
4985;DHT22;2509;49.902;8.600;2022-12-13T18:56:02;-2.30;99.90
4985;DHT22;2509;49.902;8.600;2022-12-13T18:59:04;-2.20;99.90
4985;DHT22;2509;49.902;8.600;2022-12-13T19:02:06;-2.20;99.90
4985;DHT22;2509;49.902;8.600;2022-12-13T19:05:08;-2.20;99.90
4985;DHT22;2509;49.902;8.600;2022-12-13T19:08:10;-2.30;99.90
4985;DHT22;2509;49.902;8.600;2022-12-13T19:11:13;-2.30;99.90
4985;DHT22;2509;49.902;8.600;2022-12-13T19:14:15;-2.30;99.90
4985;DHT22;2509;49.902;8.600;2022-12-13T19:17:17;-2.30;99.90
4985;DHT22;2509;49.902;8.600;2022-12-13T19:20:19;-2.30;99.90
4985;DHT22;2509;49.902;8.600;2022-12-13T19:23:20;-2.30;99.90
4985;DHT22;2509;49.902;8.600;2022-12-13T19:26:24;-2.30;99.90
4985;DHT22;2509;49.902;8.600;2022-12-13T19:29:26;-2.20;99.90
4985;DHT22;2509;49.902;8.600;2022-12-13T19:32:28;-2.30;99.90
4985;DHT22;2509;49.902;8.600;2022-12-13T19:35:30;-2.20;99.90
4985;DHT22;2509;49.902;8.600;2022-12-13T19:38:33;-2.20;99.90
4985;DHT22;2509;49.902;8.600;2022-12-13T19:41:36;-2.30;99.90
4985;DHT22;2509;49.902;8.600;2022-12-13T19:44:38;-2.20;99.90
4985;DHT22;2509;49.902;8.600;2022-12-13T19:47:39;-2.20;99.90
4985;DHT22;2509;49.902;8.600;2022-12-13T19:50:41;-2.20;99.90
4985;DHT22;2509;49.902;8.600;2022-12-13T19:53:43;-2.20;99.90
4985;DHT22;2509;49.902;8.600;2022-12-13T19:56:47;-2.20;99.90
4985;DHT22;2509;49.902;8.600;2022-12-13T19:59:49;-2.20;99.90
4985;DHT22;2509;49.902;8.600;2022-12-13T20:02:50;-2.20;99.90
4985;DHT22;2509;49.902;8.600;2022-12-13T20:05:55;-2.20;99.90
4985;DHT22;2509;49.902;8.600;2022-12-13T20:08:57;-2.20;99.90
4985;DHT22;2509;49.902;8.600;2022-12-13T20:12:00;-2.20;99.90
4985;DHT22;2509;49.902;8.600;2022-12-13T20:15:03;-2.20;99.90
4985;DHT22;2509;49.902;8.600;2022-12-13T20:18:05;-2.20;99.90
4985;DHT22;2509;49.902;8.600;2022-12-13T20:21:09;-2.30;99.90
4985;DHT22;2509;49.902;8.600;2022-12-13T20:24:11;-2.20;99.90
4985;DHT22;2509;49.902;8.600;2022-12-13T20:27:14;-2.20;99.90
4985;DHT22;2509;49.902;8.600;2022-12-13T20:30:15;-2.30;99.90
4985;DHT22;2509;49.902;8.600;2022-12-13T20:33:17;-2.30;99.90
4985;DHT22;2509;49.902;8.600;2022-12-13T20:36:20;-2.30;99.90
4985;DHT22;2509;49.902;8.600;2022-12-13T20:39:22;-2.30;99.90